createdAt,value
2022-08-11T00:01:59.802Z,101864.19
2022-08-11T00:04:28.316Z,101862.28
2022-08-11T00:06:57.390Z,101870.28
2022-08-11T00:09:39.653Z,101858.84
2022-08-11T00:12:13.782Z,101870.56
2022-08-11T00:14:42.088Z,101866.09
2022-08-11T00:17:12.181Z,101866.69
2022-08-11T00:20:11.513Z,101863.94
2022-08-11T00:22:31.728Z,101860.00
2022-08-11T00:25:02.393Z,101868.00
2022-08-11T00:27:34.719Z,101862.13
2022-08-11T00:30:02.681Z,101859.94
2022-08-11T00:32:31.231Z,101858.88
2022-08-11T00:35:52.533Z,101858.41
2022-08-11T00:37:51.563Z,101853.56
2022-08-11T00:40:25.257Z,101862.00
2022-08-11T00:43:02.847Z,101856.41
2022-08-11T00:45:34.485Z,101852.03
2022-08-11T00:48:06.114Z,101855.56
2022-08-11T00:50:41.940Z,101877.53
2022-08-11T00:53:27.031Z,101859.09
2022-08-11T00:56:22.587Z,101864.22
2022-08-11T00:59:35.605Z,101855.66
2022-08-11T01:02:18.785Z,101861.84
2022-08-11T01:05:24.499Z,101866.50
2022-08-11T01:08:26.492Z,101869.38
2022-08-11T01:11:07.734Z,101862.13
2022-08-11T01:14:07.474Z,101871.44
2022-08-11T01:16:53.743Z,101867.84
2022-08-11T01:20:38.488Z,101873.06
2022-08-11T01:23:07.406Z,101875.59
2022-08-11T01:26:02.258Z,101880.06
2022-08-11T01:28:56.880Z,101884.53
2022-08-11T01:31:56.306Z,101879.38
2022-08-11T01:34:58.292Z,101878.34
2022-08-11T01:38:02.500Z,101884.84
2022-08-11T01:40:57.656Z,101867.41
2022-08-11T01:44:27.216Z,101881.84
2022-08-11T01:46:58.491Z,101883.56
2022-08-11T01:50:08.888Z,101871.00
2022-08-11T01:52:34.782Z,101862.63
2022-08-11T01:55:18.687Z,101862.19
2022-08-11T01:57:54.393Z,101871.19
2022-08-11T02:00:23.460Z,101868.19
2022-08-11T02:03:02.639Z,101879.13
2022-08-11T02:05:46.829Z,101870.56
2022-08-11T02:08:33.409Z,101876.25
2022-08-11T02:11:28.269Z,101871.78
2022-08-11T02:14:01.722Z,101879.34
2022-08-11T02:16:37.406Z,101868.72
2022-08-11T02:19:31.392Z,101867.69
2022-08-11T02:22:20.341Z,101861.38
2022-08-11T02:25:02.190Z,101864.78
2022-08-11T02:27:38.471Z,101863.50
2022-08-11T02:30:09.910Z,101863.50
2022-08-11T02:32:58.156Z,101869.25
2022-08-11T02:35:29.408Z,101856.81
2022-08-11T02:38:10.087Z,101858.63
2022-08-11T02:40:44.416Z,101855.56
2022-08-11T02:43:27.976Z,101863.25
2022-08-11T02:46:05.837Z,101856.31
2022-08-11T02:48:58.624Z,101862.16
2022-08-11T02:51:33.417Z,101858.31
2022-08-11T02:54:11.294Z,101859.34
2022-08-11T02:56:44.512Z,101857.25
2022-08-11T02:59:41.951Z,101859.59
2022-08-11T03:02:16.707Z,101861.22
2022-08-11T03:04:56.661Z,101869.72
2022-08-11T03:07:29.658Z,101868.94
2022-08-11T03:10:04.860Z,101859.69
2022-08-11T03:12:55.530Z,101860.88
2022-08-11T03:15:50.497Z,101859.34
2022-08-11T03:18:26.792Z,101862.94
2022-08-11T03:21:00.293Z,101854.13
2022-08-11T03:23:31.764Z,101857.56
2022-08-11T03:26:03.928Z,101856.78
2022-08-11T03:28:35.592Z,101844.03
2022-08-11T03:31:11.670Z,101859.19
2022-08-11T03:34:05.676Z,101860.22
2022-08-11T03:37:17.515Z,101856.19
2022-08-11T03:39:56.623Z,101846.69
2022-08-11T03:42:29.014Z,101845.91
2022-08-11T03:45:18.359Z,101852.50
2022-08-11T03:47:55.889Z,101851.09
2022-08-11T03:50:55.145Z,101837.88
2022-08-11T03:53:36.827Z,101853.75
2022-08-11T03:56:20.130Z,101850.03
2022-08-11T03:59:28.665Z,101849.34
2022-08-11T04:02:20.442Z,101846.69
2022-08-11T04:05:24.679Z,101859.22
2022-08-11T04:08:33.924Z,101846.03
2022-08-11T04:11:22.916Z,101861.53
2022-08-11T04:14:25.066Z,101849.69
2022-08-11T04:17:07.610Z,101853.31
2022-08-11T04:20:09.090Z,101871.03
2022-08-11T04:23:03.097Z,101857.91
2022-08-11T04:25:57.828Z,101856.72
2022-08-11T04:28:50.264Z,101853.03
2022-08-11T04:31:51.949Z,101843.19
2022-08-11T04:34:42.979Z,101849.88
2022-08-11T04:37:37.143Z,101849.69
2022-08-11T04:40:19.468Z,101843.00
2022-08-11T04:43:25.554Z,101843.91
2022-08-11T04:46:17.967Z,101840.34
2022-08-11T04:49:11.987Z,101855.41
2022-08-11T04:52:10.830Z,101849.59
2022-08-11T04:55:20.680Z,101848.56
2022-08-11T04:58:31.163Z,101841.38
2022-08-11T05:01:31.018Z,101846.34
2022-08-11T05:04:35.731Z,101842.78
2022-08-11T05:07:42.905Z,101839.59
2022-08-11T05:10:19.417Z,101836.00
2022-08-11T05:12:52.433Z,101839.38
2022-08-11T05:15:44.732Z,101839.66
2022-08-11T05:18:35.246Z,101837.13
2022-08-11T05:21:25.189Z,101841.25
2022-08-11T05:24:16.451Z,101851.25
2022-08-11T05:27:08.746Z,101848.88
2022-08-11T05:30:04.744Z,101852.91
2022-08-11T05:33:00.950Z,101856.44
2022-08-11T05:36:00.650Z,101851.47
2022-08-11T05:38:43.747Z,101860.09
2022-08-11T05:41:30.103Z,101858.28
2022-08-11T05:44:20.033Z,101862.38
2022-08-11T05:47:08.989Z,101861.22
2022-08-11T05:49:55.180Z,101880.22
2022-08-11T05:52:44.721Z,101866.34
2022-08-11T05:55:33.327Z,101864.25
2022-08-11T05:58:03.706Z,101908.16
2022-08-11T06:00:31.787Z,101861.06
2022-08-11T06:03:07.234Z,101850.84
2022-08-11T06:05:38.210Z,101856.75
2022-08-11T06:08:12.189Z,101853.19
2022-08-11T06:10:42.030Z,102009.56
2022-08-11T06:13:10.285Z,101881.19
2022-08-11T06:15:45.760Z,101815.72
2022-08-11T06:18:15.343Z,101809.91
2022-08-11T06:20:48.048Z,101808.88
2022-08-11T06:23:18.627Z,101802.19
2022-08-11T06:25:46.551Z,101803.97
2022-08-11T06:28:19.943Z,101808.59
2022-08-11T06:30:48.860Z,101795.38
2022-08-11T06:33:20.755Z,101799.03
2022-08-11T06:35:55.100Z,101788.31
2022-08-11T06:38:35.028Z,101785.31
2022-08-11T06:41:23.574Z,101792.94
2022-08-11T06:43:55.818Z,101781.91
2022-08-11T06:46:28.398Z,101783.63
2022-08-11T06:48:57.960Z,101785.13
2022-08-11T06:51:24.862Z,101780.66
2022-08-11T06:54:03.276Z,101782.22
2022-08-11T06:57:06.721Z,101789.38
2022-08-11T06:59:57.691Z,101781.03
2022-08-11T07:02:33.617Z,101850.16
2022-08-11T07:05:04.959Z,101749.69
2022-08-11T07:08:34.930Z,101770.25
2022-08-11T07:11:36.859Z,101763.69
2022-08-11T07:14:23.115Z,101763.28
2022-08-11T07:16:51.620Z,101756.84
2022-08-11T07:19:41.395Z,101757.03
2022-08-11T07:22:28.864Z,101758.88
2022-08-11T07:25:16.630Z,101763.94
2022-08-11T07:28:03.439Z,101760.25
2022-08-11T07:30:31.871Z,101759.28
2022-08-11T07:33:02.020Z,101768.44
2022-08-11T07:35:33.303Z,101749.72
2022-08-11T07:38:07.171Z,101751.81
2022-08-11T07:40:36.561Z,101748.28
2022-08-11T07:43:05.588Z,101749.88
2022-08-11T07:45:51.181Z,101751.97
2022-08-11T07:48:36.501Z,101758.88
2022-08-11T07:51:22.402Z,101758.63
2022-08-11T07:53:58.647Z,101747.97
2022-08-11T07:56:54.732Z,101751.22
2022-08-11T08:00:00.632Z,101743.63
2022-08-11T08:02:50.191Z,101741.06
2022-08-11T08:05:35.953Z,101744.88
2022-08-11T08:08:21.366Z,101750.19
2022-08-11T08:11:07.847Z,101746.00
2022-08-11T08:13:53.779Z,101741.59
2022-08-11T08:16:39.026Z,101745.56
2022-08-11T08:19:06.838Z,101753.63
2022-08-11T08:21:34.554Z,101746.00
2022-08-11T08:24:02.214Z,101749.94
2022-08-11T08:26:51.726Z,101751.38
2022-08-11T08:29:38.916Z,101755.19
2022-08-11T08:32:06.830Z,101749.25
2022-08-11T08:34:34.635Z,101751.94
2022-08-11T08:37:02.343Z,101745.50
2022-08-11T08:39:46.207Z,101755.53
2022-08-11T08:42:19.980Z,101748.56
2022-08-11T08:44:52.899Z,101744.31
2022-08-11T08:47:41.646Z,101737.66
2022-08-11T08:50:16.506Z,101743.81
2022-08-11T08:52:49.482Z,101736.22
2022-08-11T08:55:19.188Z,101736.00
2022-08-11T08:57:50.279Z,101738.63
2022-08-11T09:00:23.221Z,101737.81
2022-08-11T09:02:51.617Z,101738.25
2022-08-11T09:05:21.124Z,101733.25
2022-08-11T09:07:51.570Z,101728.84
2022-08-11T09:10:20.774Z,101735.09
2022-08-11T09:12:50.982Z,101731.00
2022-08-11T09:15:20.063Z,101730.25
2022-08-11T09:17:49.361Z,101734.88
2022-08-11T09:20:20.101Z,101738.78
2022-08-11T09:26:14.320Z,101732.97
2022-08-11T09:28:44.840Z,101728.38
2022-08-11T09:31:13.555Z,101723.44
2022-08-11T09:33:42.772Z,101726.53
2022-08-11T09:36:30.288Z,101723.28
2022-08-11T09:39:15.741Z,101726.03
2022-08-11T09:42:01.551Z,101718.19
2022-08-11T09:44:48.551Z,101714.56
2022-08-11T09:47:24.127Z,101712.88
2022-08-11T09:49:53.729Z,101708.69
2022-08-11T09:52:21.762Z,101711.22
2022-08-11T09:54:50.680Z,101701.13
2022-08-11T09:57:37.438Z,101696.38
2022-08-11T10:00:13.130Z,101703.06
2022-08-11T10:02:45.097Z,101704.50
2022-08-11T10:05:33.483Z,101707.47
2022-08-11T10:08:01.739Z,101702.03
2022-08-11T10:10:30.357Z,101695.38
2022-08-11T10:13:01.544Z,101695.38
2022-08-11T10:15:38.384Z,101685.47
2022-08-11T10:18:25.907Z,101687.44
2022-08-11T10:20:58.006Z,101689.63
2022-08-11T10:24:00.188Z,101673.41
2022-08-11T10:26:49.517Z,101681.84
2022-08-11T10:29:37.373Z,101678.69
2022-08-11T10:32:32.559Z,101667.66
2022-08-11T10:35:08.971Z,101672.16
2022-08-11T10:38:06.491Z,101656.47
2022-08-11T10:40:26.062Z,101659.53
2022-08-11T10:43:06.928Z,101669.03
2022-08-11T10:45:54.302Z,101663.59
2022-08-11T10:48:25.471Z,101655.47
2022-08-11T10:51:11.145Z,101649.41
2022-08-11T10:53:58.106Z,101654.28
2022-08-11T10:56:43.437Z,101646.53
2022-08-11T10:59:11.820Z,101638.06
2022-08-11T11:01:42.520Z,101641.78
2022-08-11T11:04:15.004Z,101655.47
2022-08-11T11:06:50.540Z,101637.88
2022-08-11T11:09:23.204Z,101634.50
2022-08-11T11:12:12.060Z,101635.13
2022-08-11T11:14:59.880Z,101632.41
2022-08-11T11:17:46.871Z,101635.41
2022-08-11T11:20:36.918Z,101627.31
2022-08-11T11:23:08.655Z,101632.69
2022-08-11T11:26:06.394Z,101624.31
2022-08-11T11:28:44.525Z,101628.69
2022-08-11T11:31:21.108Z,101632.25
2022-08-11T11:34:12.548Z,101621.25
2022-08-11T11:36:47.502Z,101619.53
2022-08-11T11:39:18.291Z,101612.25
2022-08-11T11:41:46.084Z,101618.50
2022-08-11T11:44:14.486Z,101615.03
2022-08-11T11:46:45.231Z,101622.72
2022-08-11T11:49:16.819Z,101610.19
2022-08-11T11:51:47.417Z,101606.84
2022-08-11T11:54:18.904Z,101603.34
2022-08-11T11:56:47.179Z,101602.56
2022-08-11T11:59:33.124Z,101598.47
2022-08-11T12:02:01.411Z,101596.66
2022-08-11T12:04:42.991Z,101587.25
2022-08-11T12:07:30.280Z,101585.53
2022-08-11T12:09:58.600Z,101587.13
2022-08-11T12:12:44.242Z,101575.66
2022-08-11T12:15:12.735Z,101579.09
2022-08-11T12:17:40.873Z,101568.19
2022-08-11T12:20:33.575Z,101564.44
2022-08-11T12:23:17.003Z,101562.00
2022-08-11T12:26:26.453Z,101556.59
2022-08-11T12:28:51.296Z,101560.94
2022-08-11T12:31:22.046Z,101553.97
2022-08-11T12:33:50.284Z,101554.19
2022-08-11T12:36:18.585Z,101545.25
2022-08-11T12:38:51.561Z,101550.38
2022-08-11T12:41:37.777Z,101541.16
2022-08-11T12:44:25.298Z,101528.44
2022-08-11T12:46:52.959Z,101528.72
2022-08-11T12:49:43.198Z,101528.53
2022-08-11T12:52:17.199Z,101527.44
2022-08-11T12:54:57.631Z,101527.47
2022-08-11T12:57:49.453Z,101525.81
2022-08-11T13:00:35.612Z,101605.50
2022-08-11T13:03:22.207Z,101531.78
2022-08-11T13:05:53.552Z,101523.22
2022-08-11T13:08:23.413Z,101511.81
2022-08-11T13:11:10.995Z,101541.03
2022-08-11T13:13:55.408Z,101518.38
2022-08-11T13:16:25.595Z,101499.91
2022-08-11T13:18:53.766Z,101492.16
2022-08-11T13:21:22.512Z,101490.28
2022-08-11T13:24:01.567Z,101495.78
2022-08-11T13:26:43.676Z,101500.19
2022-08-11T13:29:18.457Z,101490.84
2022-08-11T13:31:46.884Z,101499.16
2022-08-11T13:34:16.128Z,101495.19
2022-08-11T13:36:45.777Z,101495.38
2022-08-11T13:39:14.160Z,101497.22
2022-08-11T13:41:45.174Z,101483.16
2022-08-11T13:44:15.844Z,101478.19
2022-08-11T13:46:45.211Z,101481.47
2022-08-11T13:49:16.234Z,101472.41
2022-08-11T13:51:44.304Z,101498.44
2022-08-11T13:54:14.220Z,101476.06
2022-08-11T13:56:45.455Z,101485.84
2022-08-11T13:59:14.703Z,101483.94
2022-08-11T14:02:19.560Z,101471.94
2022-08-11T14:04:40.928Z,101473.44
2022-08-11T14:07:10.552Z,101471.28
2022-08-11T14:09:40.765Z,101466.94
2022-08-11T14:12:31.155Z,101473.06
2022-08-11T14:15:05.826Z,101462.06
2022-08-11T14:17:48.234Z,101463.41
2022-08-11T14:20:39.468Z,101455.84
2022-08-11T14:23:05.625Z,101460.13
2022-08-11T14:26:01.166Z,101465.28
2022-08-11T14:28:33.721Z,101457.75
2022-08-11T14:31:05.145Z,101461.25
2022-08-11T14:33:59.748Z,101446.72
2022-08-11T14:36:23.027Z,101455.63
2022-08-11T14:38:50.942Z,101441.13
2022-08-11T14:41:36.703Z,101455.00
2022-08-11T14:44:25.056Z,101443.09
2022-08-11T14:47:23.932Z,101444.78
2022-08-11T14:50:03.082Z,101438.19
2022-08-11T14:52:38.925Z,101498.91
2022-08-11T14:55:25.455Z,101470.88
2022-08-11T14:57:55.896Z,101457.03
2022-08-11T15:00:35.051Z,101445.25
2022-08-11T15:03:13.010Z,101450.22
2022-08-11T15:05:56.660Z,101431.66
2022-08-11T15:08:42.459Z,101430.13
2022-08-11T15:11:32.198Z,101417.31
2022-08-11T15:14:00.543Z,101416.28
2022-08-11T15:16:47.364Z,101421.19
2022-08-11T15:19:16.622Z,101412.00
2022-08-11T15:22:02.059Z,101412.00
2022-08-11T15:24:31.039Z,101404.59
2022-08-11T15:27:17.185Z,101400.06
2022-08-11T15:30:02.482Z,101401.94
2022-08-11T15:32:49.904Z,101392.69
2022-08-11T15:35:39.318Z,101386.41
2022-08-11T15:38:07.753Z,101381.91
2022-08-11T15:41:01.154Z,101394.78
2022-08-11T15:43:48.643Z,101384.19
2022-08-11T15:46:18.919Z,101380.78
2022-08-11T15:48:49.539Z,101381.44
2022-08-11T15:51:25.370Z,101374.03
2022-08-11T15:53:56.753Z,101370.13
2022-08-11T15:56:26.446Z,101368.44
2022-08-11T15:59:41.059Z,101375.25
2022-08-11T16:02:27.632Z,101364.06
2022-08-11T16:04:57.932Z,101363.13
2022-08-11T16:07:27.950Z,101368.75
2022-08-11T16:10:00.474Z,101369.84
2022-08-11T16:12:30.510Z,101396.09
2022-08-11T16:15:20.452Z,101378.03
2022-08-11T16:17:51.255Z,101363.84
2022-08-11T16:20:22.440Z,101349.72
2022-08-11T16:23:01.549Z,101341.94
2022-08-11T16:27:06.894Z,101341.78
2022-08-11T16:28:20.665Z,101340.25
2022-08-11T16:30:48.858Z,101343.22
2022-08-11T16:33:48.953Z,101326.09
2022-08-11T16:36:25.083Z,101328.03
2022-08-11T16:38:54.184Z,101328.69
2022-08-11T16:41:38.360Z,101327.75
2022-08-11T16:44:37.241Z,101331.69
2022-08-11T16:47:07.124Z,101325.34
2022-08-11T16:49:37.085Z,101335.13
2022-08-11T16:52:11.029Z,101333.91
2022-08-11T16:54:40.863Z,101356.38
2022-08-11T16:57:32.668Z,101488.78
2022-08-11T17:00:04.449Z,101394.53
2022-08-11T17:02:51.726Z,101372.88
2022-08-11T17:05:53.848Z,101341.78
2022-08-11T17:08:41.438Z,101341.50
2022-08-11T17:11:34.755Z,101335.81
2022-08-11T17:14:06.831Z,101329.53
2022-08-11T17:16:37.447Z,101329.34
2022-08-11T17:19:07.944Z,101321.59
2022-08-11T17:22:02.938Z,101326.44
2022-08-11T17:24:33.144Z,101314.84
2022-08-11T17:27:01.926Z,101321.31
2022-08-11T17:29:31.832Z,101315.22
2022-08-11T17:32:18.211Z,101310.56
2022-08-11T17:35:04.990Z,101317.19
2022-08-11T17:37:33.744Z,101316.53
2022-08-11T17:40:05.343Z,101312.31
2022-08-11T17:42:51.115Z,101304.75
2022-08-11T17:45:37.380Z,101307.91
2022-08-11T17:48:23.159Z,101311.09
2022-08-11T17:50:52.073Z,101314.91
2022-08-11T17:53:38.055Z,101316.75
2022-08-11T17:56:26.100Z,101317.50
2022-08-11T17:59:11.936Z,101318.53
2022-08-11T18:01:40.968Z,101318.66
2022-08-11T18:04:11.415Z,101315.22
2022-08-11T18:06:40.332Z,101314.09
2022-08-11T18:09:27.824Z,101312.31
2022-08-11T18:12:14.867Z,101305.22
2022-08-11T18:15:09.812Z,101307.34
2022-08-11T18:17:56.090Z,101310.19
2022-08-11T18:20:42.472Z,101322.47
2022-08-11T18:23:46.163Z,101324.25
2022-08-11T18:26:34.504Z,101325.47
2022-08-11T18:29:21.518Z,101352.97
2022-08-11T18:32:08.370Z,101342.03
2022-08-11T18:34:56.208Z,101334.31
2022-08-11T18:37:44.527Z,101319.09
2022-08-11T18:40:33.310Z,101323.38
2022-08-11T18:43:25.112Z,101320.88
2022-08-11T18:46:19.012Z,101319.25
2022-08-11T18:49:13.078Z,101317.78
2022-08-11T18:52:03.877Z,101314.06
2022-08-11T18:54:53.117Z,101324.03
2022-08-11T18:57:49.567Z,101315.03
2022-08-11T19:00:40.118Z,101314.19
2022-08-11T19:03:27.084Z,101315.88
2022-08-11T19:06:38.633Z,101318.78
2022-08-11T19:09:21.418Z,101323.53
2022-08-11T19:12:07.181Z,101315.16
2022-08-11T19:14:54.448Z,101328.59
2022-08-11T19:17:43.879Z,101340.34
2022-08-11T19:20:34.962Z,101335.63
2022-08-11T19:23:21.485Z,101339.16
2022-08-11T19:26:06.723Z,101342.69
2022-08-11T19:28:53.057Z,101340.75
2022-08-11T19:31:43.836Z,101352.72
2022-08-11T19:34:30.800Z,101352.91
2022-08-11T19:37:22.049Z,101356.31
2022-08-11T19:40:10.254Z,101368.56
2022-08-11T19:42:56.068Z,101374.31
2022-08-11T19:45:41.403Z,101366.84
2022-08-11T19:48:32.164Z,101370.16
2022-08-11T19:51:18.400Z,101374.84
2022-08-11T19:54:07.163Z,101373.78
2022-08-11T19:56:52.476Z,101375.75
2022-08-11T19:59:38.224Z,101377.28
2022-08-11T20:02:24.241Z,101376.13
2022-08-11T20:05:09.534Z,101390.50
2022-08-11T20:07:55.473Z,101385.56
2022-08-11T20:10:43.684Z,101382.72
2022-08-11T20:13:30.546Z,101386.50
2022-08-11T20:16:17.910Z,101383.38
2022-08-11T20:19:05.003Z,101382.72
2022-08-11T20:21:50.796Z,101385.59
2022-08-11T20:24:36.778Z,101385.19
2022-08-11T20:27:25.256Z,101386.94
2022-08-11T20:30:11.171Z,101384.53
2022-08-11T20:32:56.959Z,101383.84
2022-08-11T20:35:42.306Z,101388.91
2022-08-11T20:38:28.161Z,101386.50
2022-08-11T20:41:16.185Z,101389.16
2022-08-11T20:44:06.808Z,101389.47
2022-08-11T20:46:55.139Z,101388.75
2022-08-11T20:49:50.458Z,101397.38
2022-08-11T20:52:40.506Z,101402.03
2022-08-11T20:55:51.491Z,101405.84
2022-08-11T20:59:00.995Z,101401.34
2022-08-11T21:01:42.195Z,101408.69
2022-08-11T21:04:27.784Z,101409.38
2022-08-11T21:07:22.815Z,101411.44
2022-08-11T21:10:22.814Z,101410.88
2022-08-11T21:13:26.159Z,101402.69
2022-08-11T21:16:25.544Z,101412.22
2022-08-11T21:19:16.079Z,101404.56
2022-08-11T21:22:01.355Z,101406.81
2022-08-11T21:24:50.694Z,101417.25
2022-08-11T21:27:36.952Z,101407.06
2022-08-11T21:30:21.528Z,101414.72
2022-08-11T21:33:07.358Z,101412.09
2022-08-11T21:35:54.463Z,101418.25
2022-08-11T21:38:39.855Z,101416.88
2022-08-11T21:41:25.867Z,101412.09
2022-08-11T21:44:12.211Z,101420.31
2022-08-11T21:46:58.535Z,101405.78
2022-08-11T21:49:44.933Z,101403.63
2022-08-11T21:52:32.159Z,101406.16
2022-08-11T21:55:17.860Z,101398.56
2022-08-11T21:58:03.911Z,101402.28
2022-08-11T22:00:49.337Z,101395.25
2022-08-11T22:03:42.453Z,101400.00
2022-08-11T22:06:35.635Z,101392.19
2022-08-11T22:09:22.107Z,101392.38
2022-08-11T22:12:29.902Z,101422.66
2022-08-11T22:15:13.048Z,101404.22
2022-08-11T22:17:58.449Z,101399.97
2022-08-11T22:20:45.531Z,101403.81
2022-08-11T22:23:36.287Z,101398.00
2022-08-11T22:26:24.417Z,101394.66
2022-08-11T22:29:10.040Z,101393.06
2022-08-11T22:31:55.820Z,101395.06
2022-08-11T22:34:53.518Z,101398.41
2022-08-11T22:37:39.626Z,101392.31
2022-08-11T22:40:26.338Z,101395.56
2022-08-11T22:43:12.921Z,101387.84
2022-08-11T22:45:58.290Z,101390.78
2022-08-11T22:48:44.604Z,101383.81
2022-08-11T22:51:30.172Z,101383.97
2022-08-11T22:54:16.027Z,101384.84
2022-08-11T22:57:01.636Z,101390.25
2022-08-11T22:59:48.271Z,101384.97
2022-08-11T23:02:34.221Z,101382.44
2022-08-11T23:05:19.787Z,101383.63
2022-08-11T23:08:05.067Z,101383.03
2022-08-11T23:10:51.333Z,101383.44
2022-08-11T23:13:36.754Z,101390.97
2022-08-11T23:16:23.888Z,101389.13
2022-08-11T23:19:09.619Z,101395.72
2022-08-11T23:21:55.807Z,101378.81
2022-08-11T23:24:40.954Z,101381.88
2022-08-11T23:27:27.738Z,101375.94
2022-08-11T23:30:17.169Z,101376.56
2022-08-11T23:33:07.824Z,101394.78
2022-08-11T23:35:55.526Z,101388.97
2022-08-11T23:38:43.287Z,101370.53
2022-08-11T23:41:28.730Z,101372.72
2022-08-11T23:44:14.190Z,101372.56
2022-08-11T23:47:00.045Z,101377.53
2022-08-11T23:49:46.567Z,101370.50
2022-08-11T23:52:32.443Z,101377.78
2022-08-11T23:55:17.797Z,101366.97
2022-08-11T23:58:03.079Z,101369.63
